sensor_id;sensor_type;location;lat;lon;timestamp;pressure;altitude;pressure_sealevel;temperature;humidity
68075;BME280;54864;52.002;5.468;2023-05-02T00:00:05;101855.50;;;13.17;73.96
68075;BME280;54864;52.002;5.468;2023-05-02T00:01:06;101859.81;;;13.20;73.44
68075;BME280;54864;52.002;5.468;2023-05-02T00:02:08;101858.25;;;13.14;73.61
68075;BME280;54864;52.002;5.468;2023-05-02T00:03:08;101862.78;;;13.11;73.66
68075;BME280;54864;52.002;5.468;2023-05-02T00:04:10;101852.94;;;13.14;73.93
68075;BME280;54864;52.002;5.468;2023-05-02T00:05:11;101855.66;;;13.13;73.88
68075;BME280;54864;52.002;5.468;2023-05-02T00:06:13;101859.97;;;13.15;73.88
68075;BME280;54864;52.002;5.468;2023-05-02T00:07:14;101858.78;;;13.00;74.51
68075;BME280;54864;52.002;5.468;2023-05-02T00:08:17;101859.84;;;12.95;75.04
68075;BME280;54864;52.002;5.468;2023-05-02T00:09:17;101856.56;;;12.88;75.23
68075;BME280;54864;52.002;5.468;2023-05-02T00:10:22;101857.13;;;12.96;75.14
68075;BME280;54864;52.002;5.468;2023-05-02T00:11:23;101857.00;;;13.01;74.75
68075;BME280;54864;52.002;5.468;2023-05-02T00:12:24;101861.19;;;13.07;74.72
68075;BME280;54864;52.002;5.468;2023-05-02T00:13:25;101857.69;;;13.06;74.47
68075;BME280;54864;52.002;5.468;2023-05-02T00:14:26;101862.00;;;13.09;74.89
68075;BME280;54864;52.002;5.468;2023-05-02T00:15:29;101861.19;;;13.07;74.58
68075;BME280;54864;52.002;5.468;2023-05-02T00:16:31;101860.59;;;12.98;74.92
68075;BME280;54864;52.002;5.468;2023-05-02T00:17:32;101860.78;;;12.94;74.94
68075;BME280;54864;52.002;5.468;2023-05-02T00:18:33;101861.88;;;12.88;75.33
68075;BME280;54864;52.002;5.468;2023-05-02T00:19:37;101853.88;;;12.90;75.98
68075;BME280;54864;52.002;5.468;2023-05-02T00:20:39;101857.09;;;12.98;75.40
68075;BME280;54864;52.002;5.468;2023-05-02T00:21:41;101854.59;;;12.93;75.39
68075;BME280;54864;52.002;5.468;2023-05-02T00:22:43;101852.50;;;13.03;75.49
68075;BME280;54864;52.002;5.468;2023-05-02T00:23:47;101851.56;;;13.04;75.08
68075;BME280;54864;52.002;5.468;2023-05-02T00:24:55;101844.81;;;12.95;74.75
68075;BME280;54864;52.002;5.468;2023-05-02T00:26:02;101850.00;;;12.98;75.10
68075;BME280;54864;52.002;5.468;2023-05-02T00:27:04;101863.25;;;12.98;75.26
68075;BME280;54864;52.002;5.468;2023-05-02T00:28:05;101866.00;;;12.95;75.33
68075;BME280;54864;52.002;5.468;2023-05-02T00:29:07;101864.16;;;12.97;75.26
68075;BME280;54864;52.002;5.468;2023-05-02T00:30:08;101861.38;;;13.02;75.52
68075;BME280;54864;52.002;5.468;2023-05-02T00:31:10;101859.78;;;12.96;75.71
68075;BME280;54864;52.002;5.468;2023-05-02T00:32:10;101868.59;;;12.97;75.09
68075;BME280;54864;52.002;5.468;2023-05-02T00:33:12;101860.72;;;12.95;75.01
68075;BME280;54864;52.002;5.468;2023-05-02T00:34:13;101862.00;;;13.09;74.83
68075;BME280;54864;52.002;5.468;2023-05-02T00:35:15;101865.50;;;13.09;74.64
68075;BME280;54864;52.002;5.468;2023-05-02T00:36:18;101866.53;;;13.05;74.91
68075;BME280;54864;52.002;5.468;2023-05-02T00:37:20;101860.66;;;12.97;75.34
68075;BME280;54864;52.002;5.468;2023-05-02T00:38:20;101863.78;;;13.08;74.87
68075;BME280;54864;52.002;5.468;2023-05-02T00:39:24;101863.31;;;13.20;74.47
68075;BME280;54864;52.002;5.468;2023-05-02T00:40:25;101868.03;;;13.12;74.71
68075;BME280;54864;52.002;5.468;2023-05-02T00:41:26;101865.03;;;13.21;74.48
68075;BME280;54864;52.002;5.468;2023-05-02T00:42:27;101864.81;;;13.27;74.02
68075;BME280;54864;52.002;5.468;2023-05-02T00:43:30;101866.84;;;13.21;74.31
68075;BME280;54864;52.002;5.468;2023-05-02T00:44:31;101868.31;;;13.28;73.94
68075;BME280;54864;52.002;5.468;2023-05-02T00:45:36;101868.78;;;13.16;74.14
68075;BME280;54864;52.002;5.468;2023-05-02T00:46:40;101866.19;;;13.14;74.29
68075;BME280;54864;52.002;5.468;2023-05-02T00:47:41;101858.88;;;13.21;74.63
68075;BME280;54864;52.002;5.468;2023-05-02T00:48:42;101861.47;;;13.22;74.41
68075;BME280;54864;52.002;5.468;2023-05-02T00:49:44;101865.16;;;13.18;74.22
68075;BME280;54864;52.002;5.468;2023-05-02T00:50:45;101854.91;;;13.09;74.57
68075;BME280;54864;52.002;5.468;2023-05-02T00:51:47;101861.00;;;13.11;74.52
68075;BME280;54864;52.002;5.468;2023-05-02T00:52:48;101858.81;;;12.99;75.55
68075;BME280;54864;52.002;5.468;2023-05-02T00:53:49;101864.31;;;13.18;74.81
68075;BME280;54864;52.002;5.468;2023-05-02T00:54:54;101863.06;;;13.26;73.94
68075;BME280;54864;52.002;5.468;2023-05-02T00:56:02;101853.47;;;13.24;74.18
68075;BME280;54864;52.002;5.468;2023-05-02T00:57:03;101865.66;;;13.28;73.88
68075;BME280;54864;52.002;5.468;2023-05-02T00:58:07;101860.44;;;13.26;73.95
68075;BME280;54864;52.002;5.468;2023-05-02T00:59:09;101862.03;;;13.30;73.51
68075;BME280;54864;52.002;5.468;2023-05-02T01:00:12;101863.25;;;13.44;73.12
68075;BME280;54864;52.002;5.468;2023-05-02T01:01:28;101870.97;;;13.50;72.84
68075;BME280;54864;52.002;5.468;2023-05-02T01:02:34;101877.13;;;13.50;72.58
68075;BME280;54864;52.002;5.468;2023-05-02T01:03:41;101875.41;;;13.49;73.18
68075;BME280;54864;52.002;5.468;2023-05-02T01:04:55;101873.41;;;13.54;73.26
68075;BME280;54864;52.002;5.468;2023-05-02T01:06:10;101862.69;;;13.57;72.85
68075;BME280;54864;52.002;5.468;2023-05-02T01:07:30;101874.47;;;13.50;72.70
68075;BME280;54864;52.002;5.468;2023-05-02T01:08:39;101864.94;;;13.24;73.55
68075;BME280;54864;52.002;5.468;2023-05-02T01:10:03;101868.44;;;13.25;74.04
68075;BME280;54864;52.002;5.468;2023-05-02T01:11:14;101870.78;;;13.32;73.99
68075;BME280;54864;52.002;5.468;2023-05-02T01:13:42;101871.16;;;13.23;74.11
68075;BME280;54864;52.002;5.468;2023-05-02T01:14:50;101870.09;;;13.27;74.24
68075;BME280;54864;52.002;5.468;2023-05-02T01:15:55;101876.44;;;13.23;74.11
68075;BME280;54864;52.002;5.468;2023-05-02T01:17:02;101872.75;;;13.27;74.17
68075;BME280;54864;52.002;5.468;2023-05-02T01:18:07;101875.63;;;13.21;74.89
68075;BME280;54864;52.002;5.468;2023-05-02T01:19:18;101876.94;;;13.33;74.04
68075;BME280;54864;52.002;5.468;2023-05-02T01:20:20;101872.81;;;13.48;73.02
68075;BME280;54864;52.002;5.468;2023-05-02T01:21:24;101879.97;;;13.46;73.43
68075;BME280;54864;52.002;5.468;2023-05-02T01:22:27;101874.97;;;13.38;73.42
68075;BME280;54864;52.002;5.468;2023-05-02T01:23:44;101878.09;;;13.26;74.14
68075;BME280;54864;52.002;5.468;2023-05-02T01:24:59;101884.84;;;13.11;74.58
68075;BME280;54864;52.002;5.468;2023-05-02T01:26:14;101882.13;;;13.13;74.97
68075;BME280;54864;52.002;5.468;2023-05-02T01:27:25;101882.88;;;13.16;74.91
68075;BME280;54864;52.002;5.468;2023-05-02T01:28:32;101887.47;;;12.88;76.22
68075;BME280;54864;52.002;5.468;2023-05-02T01:29:42;101867.63;;;12.76;76.41
68075;BME280;54864;52.002;5.468;2023-05-02T01:30:46;101889.19;;;12.89;76.62
68075;BME280;54864;52.002;5.468;2023-05-02T01:31:53;101886.38;;;12.70;77.44
68075;BME280;54864;52.002;5.468;2023-05-02T01:32:57;101888.50;;;12.84;77.35
68075;BME280;54864;52.002;5.468;2023-05-02T01:33:59;101886.56;;;12.89;77.17
68075;BME280;54864;52.002;5.468;2023-05-02T01:35:02;101891.03;;;12.87;77.28
68075;BME280;54864;52.002;5.468;2023-05-02T01:36:05;101887.97;;;12.97;76.99
68075;BME280;54864;52.002;5.468;2023-05-02T01:37:10;101883.56;;;12.98;77.00
68075;BME280;54864;52.002;5.468;2023-05-02T01:38:13;101890.44;;;13.04;76.61
68075;BME280;54864;52.002;5.468;2023-05-02T01:39:20;101887.66;;;13.07;76.53
68075;BME280;54864;52.002;5.468;2023-05-02T01:40:23;101880.69;;;13.04;76.50
68075;BME280;54864;52.002;5.468;2023-05-02T01:41:26;101885.56;;;13.15;76.41
68075;BME280;54864;52.002;5.468;2023-05-02T01:42:31;101888.28;;;13.13;76.97
68075;BME280;54864;52.002;5.468;2023-05-02T01:43:33;101888.09;;;12.94;77.64
68075;BME280;54864;52.002;5.468;2023-05-02T01:44:39;101890.91;;;12.90;77.91
68075;BME280;54864;52.002;5.468;2023-05-02T01:45:47;101887.47;;;12.88;78.01
68075;BME280;54864;52.002;5.468;2023-05-02T01:46:50;101894.94;;;12.77;78.88
68075;BME280;54864;52.002;5.468;2023-05-02T01:47:55;101902.44;;;12.89;78.61
68075;BME280;54864;52.002;5.468;2023-05-02T01:48:58;101903.13;;;12.94;78.51
68075;BME280;54864;52.002;5.468;2023-05-02T01:50:02;101908.09;;;13.03;78.10
68075;BME280;54864;52.002;5.468;2023-05-02T01:51:05;101909.94;;;13.01;77.87
68075;BME280;54864;52.002;5.468;2023-05-02T01:52:10;101909.22;;;12.96;78.10
68075;BME280;54864;52.002;5.468;2023-05-02T01:53:13;101902.13;;;12.73;78.98
68075;BME280;54864;52.002;5.468;2023-05-02T01:54:17;101916.03;;;12.30;80.00
68075;BME280;54864;52.002;5.468;2023-05-02T01:55:22;101911.03;;;12.47;80.40
68075;BME280;54864;52.002;5.468;2023-05-02T01:56:26;101909.25;;;12.48;79.79
68075;BME280;54864;52.002;5.468;2023-05-02T01:57:28;101911.28;;;12.64;78.91
68075;BME280;54864;52.002;5.468;2023-05-02T01:58:32;101913.13;;;12.62;78.89
68075;BME280;54864;52.002;5.468;2023-05-02T01:59:35;101912.94;;;12.67;78.89
68075;BME280;54864;52.002;5.468;2023-05-02T02:00:38;101920.31;;;12.59;78.54
68075;BME280;54864;52.002;5.468;2023-05-02T02:01:42;101919.38;;;12.60;77.70
68075;BME280;54864;52.002;5.468;2023-05-02T02:02:50;101926.44;;;12.34;78.25
68075;BME280;54864;52.002;5.468;2023-05-02T02:03:52;101922.31;;;12.52;78.21
68075;BME280;54864;52.002;5.468;2023-05-02T02:04:55;101927.00;;;12.44;77.58
68075;BME280;54864;52.002;5.468;2023-05-02T02:05:57;101919.59;;;12.29;77.97
68075;BME280;54864;52.002;5.468;2023-05-02T02:07:02;101927.28;;;12.36;77.46
68075;BME280;54864;52.002;5.468;2023-05-02T02:08:07;101930.97;;;12.31;77.77
68075;BME280;54864;52.002;5.468;2023-05-02T02:09:10;101928.16;;;12.37;77.41
68075;BME280;54864;52.002;5.468;2023-05-02T02:10:11;101936.06;;;12.37;77.13
68075;BME280;54864;52.002;5.468;2023-05-02T02:11:16;101933.44;;;12.37;77.44
68075;BME280;54864;52.002;5.468;2023-05-02T02:12:23;101938.94;;;12.04;77.78
68075;BME280;54864;52.002;5.468;2023-05-02T02:13:28;101939.03;;;12.01;78.22
68075;BME280;54864;52.002;5.468;2023-05-02T02:14:37;101948.38;;;12.12;78.15
68075;BME280;54864;52.002;5.468;2023-05-02T02:15:40;101947.88;;;12.00;78.27
68075;BME280;54864;52.002;5.468;2023-05-02T02:16:43;101940.91;;;11.98;78.49
68075;BME280;54864;52.002;5.468;2023-05-02T02:17:54;101941.53;;;12.06;78.35
68075;BME280;54864;52.002;5.468;2023-05-02T02:18:58;101940.56;;;12.09;78.00
68075;BME280;54864;52.002;5.468;2023-05-02T02:20:08;101941.47;;;12.07;77.42
68075;BME280;54864;52.002;5.468;2023-05-02T02:21:10;101945.03;;;12.06;77.41
68075;BME280;54864;52.002;5.468;2023-05-02T02:22:14;101947.03;;;12.25;77.42
68075;BME280;54864;52.002;5.468;2023-05-02T02:23:25;101945.31;;;12.24;77.20
68075;BME280;54864;52.002;5.468;2023-05-02T02:24:27;101943.47;;;12.26;77.04
68075;BME280;54864;52.002;5.468;2023-05-02T02:25:30;101932.91;;;12.26;76.56
68075;BME280;54864;52.002;5.468;2023-05-02T02:26:36;101949.03;;;12.18;77.22
68075;BME280;54864;52.002;5.468;2023-05-02T02:27:37;101938.41;;;12.20;77.20
68075;BME280;54864;52.002;5.468;2023-05-02T02:28:39;101948.66;;;12.29;76.80
68075;BME280;54864;52.002;5.468;2023-05-02T02:29:42;101952.03;;;12.34;76.64
68075;BME280;54864;52.002;5.468;2023-05-02T02:30:47;101955.69;;;12.03;77.62
68075;BME280;54864;52.002;5.468;2023-05-02T02:31:53;101948.22;;;12.16;76.90
68075;BME280;54864;52.002;5.468;2023-05-02T02:32:54;101948.78;;;12.26;76.67
68075;BME280;54864;52.002;5.468;2023-05-02T02:33:55;101939.88;;;12.28;76.51
68075;BME280;54864;52.002;5.468;2023-05-02T02:34:57;101946.19;;;12.24;76.86
68075;BME280;54864;52.002;5.468;2023-05-02T02:36:07;101959.88;;;12.11;77.02
68075;BME280;54864;52.002;5.468;2023-05-02T02:37:14;101952.03;;;12.07;76.71
68075;BME280;54864;52.002;5.468;2023-05-02T02:38:25;101963.28;;;12.14;76.66
68075;BME280;54864;52.002;5.468;2023-05-02T02:39:40;101968.16;;;12.00;76.37
68075;BME280;54864;52.002;5.468;2023-05-02T02:40:46;101970.19;;;11.92;77.38
68075;BME280;54864;52.002;5.468;2023-05-02T02:41:58;101968.72;;;12.10;76.86
68075;BME280;54864;52.002;5.468;2023-05-02T02:43:07;101971.16;;;12.16;76.49
68075;BME280;54864;52.002;5.468;2023-05-02T02:44:23;101974.41;;;12.24;76.06
68075;BME280;54864;52.002;5.468;2023-05-02T02:45:31;101969.00;;;12.27;75.97
68075;BME280;54864;52.002;5.468;2023-05-02T02:46:49;101973.31;;;12.29;75.60
68075;BME280;54864;52.002;5.468;2023-05-02T02:48:07;101976.56;;;12.39;74.84
68075;BME280;54864;52.002;5.468;2023-05-02T02:49:20;101977.75;;;12.29;75.23
68075;BME280;54864;52.002;5.468;2023-05-02T02:50:30;101973.91;;;12.13;76.02
68075;BME280;54864;52.002;5.468;2023-05-02T02:51:43;101981.53;;;12.22;75.39
68075;BME280;54864;52.002;5.468;2023-05-02T02:52:51;101971.75;;;12.24;75.79
68075;BME280;54864;52.002;5.468;2023-05-02T02:53:59;101975.22;;;12.26;75.31
68075;BME280;54864;52.002;5.468;2023-05-02T02:55:07;101977.97;;;12.23;75.28
68075;BME280;54864;52.002;5.468;2023-05-02T02:56:14;101976.38;;;12.17;75.38
68075;BME280;54864;52.002;5.468;2023-05-02T02:57:19;101983.47;;;12.17;74.60
68075;BME280;54864;52.002;5.468;2023-05-02T02:58:29;101982.91;;;12.07;74.58
68075;BME280;54864;52.002;5.468;2023-05-02T02:59:32;101990.53;;;12.16;74.29
68075;BME280;54864;52.002;5.468;2023-05-02T03:00:35;101974.19;;;12.30;73.71
68075;BME280;54864;52.002;5.468;2023-05-02T03:01:39;101980.97;;;12.12;73.37
68075;BME280;54864;52.002;5.468;2023-05-02T03:02:46;101978.16;;;12.17;73.79
68075;BME280;54864;52.002;5.468;2023-05-02T03:03:50;101979.59;;;12.27;72.95
68075;BME280;54864;52.002;5.468;2023-05-02T03:04:52;101983.81;;;12.32;72.71
68075;BME280;54864;52.002;5.468;2023-05-02T03:05:54;101984.59;;;12.36;72.91
68075;BME280;54864;52.002;5.468;2023-05-02T03:06:56;101990.59;;;12.41;72.16
68075;BME280;54864;52.002;5.468;2023-05-02T03:08:00;101987.13;;;12.39;71.82
68075;BME280;54864;52.002;5.468;2023-05-02T03:09:01;101983.84;;;12.31;71.68
68075;BME280;54864;52.002;5.468;2023-05-02T03:10:04;101991.25;;;12.48;71.40
68075;BME280;54864;52.002;5.468;2023-05-02T03:11:06;101997.81;;;12.36;71.63
68075;BME280;54864;52.002;5.468;2023-05-02T03:12:08;101994.44;;;12.31;71.03
68075;BME280;54864;52.002;5.468;2023-05-02T03:13:10;101995.31;;;12.05;71.61
68075;BME280;54864;52.002;5.468;2023-05-02T03:14:11;102001.75;;;12.23;71.79
68075;BME280;54864;52.002;5.468;2023-05-02T03:15:24;101997.38;;;12.22;72.18
68075;BME280;54864;52.002;5.468;2023-05-02T03:16:35;101998.91;;;12.29;71.24
68075;BME280;54864;52.002;5.468;2023-05-02T03:17:37;102001.22;;;12.40;70.66
68075;BME280;54864;52.002;5.468;2023-05-02T03:18:39;102002.94;;;12.41;70.18
68075;BME280;54864;52.002;5.468;2023-05-02T03:19:41;102009.00;;;12.44;70.25
68075;BME280;54864;52.002;5.468;2023-05-02T03:20:44;102011.47;;;12.22;70.57
68075;BME280;54864;52.002;5.468;2023-05-02T03:21:44;102005.47;;;12.17;70.70
68075;BME280;54864;52.002;5.468;2023-05-02T03:22:46;102004.66;;;12.15;70.67
68075;BME280;54864;52.002;5.468;2023-05-02T03:23:47;102008.88;;;12.21;70.46
68075;BME280;54864;52.002;5.468;2023-05-02T03:24:49;102015.91;;;12.22;70.28
68075;BME280;54864;52.002;5.468;2023-05-02T03:25:50;102008.72;;;12.25;70.06
68075;BME280;54864;52.002;5.468;2023-05-02T03:26:53;102014.31;;;12.16;70.80
68075;BME280;54864;52.002;5.468;2023-05-02T03:27:56;102013.16;;;12.25;70.15
68075;BME280;54864;52.002;5.468;2023-05-02T03:29:02;102012.22;;;12.26;69.86
68075;BME280;54864;52.002;5.468;2023-05-02T03:30:05;102015.53;;;12.32;69.84
68075;BME280;54864;52.002;5.468;2023-05-02T03:31:06;102020.75;;;12.35;69.74
68075;BME280;54864;52.002;5.468;2023-05-02T03:32:08;102019.44;;;12.21;70.13
68075;BME280;54864;52.002;5.468;2023-05-02T03:33:12;102016.34;;;12.08;70.02
68075;BME280;54864;52.002;5.468;2023-05-02T03:34:14;102025.13;;;12.09;70.04
68075;BME280;54864;52.002;5.468;2023-05-02T03:35:16;102025.19;;;12.07;70.77
68075;BME280;54864;52.002;5.468;2023-05-02T03:36:18;102019.28;;;11.99;70.75
68075;BME280;54864;52.002;5.468;2023-05-02T03:37:19;102030.38;;;12.10;70.46
68075;BME280;54864;52.002;5.468;2023-05-02T03:38:20;102024.19;;;11.83;70.55
68075;BME280;54864;52.002;5.468;2023-05-02T03:39:22;102033.50;;;11.95;70.20
68075;BME280;54864;52.002;5.468;2023-05-02T03:40:22;102027.38;;;11.94;70.29
68075;BME280;54864;52.002;5.468;2023-05-02T03:41:24;102032.84;;;11.88;70.13
68075;BME280;54864;52.002;5.468;2023-05-02T03:42:25;102034.63;;;11.88;70.67
68075;BME280;54864;52.002;5.468;2023-05-02T03:43:26;102032.25;;;12.06;70.47
68075;BME280;54864;52.002;5.468;2023-05-02T03:44:27;102036.72;;;12.04;70.34
68075;BME280;54864;52.002;5.468;2023-05-02T03:45:29;102037.66;;;12.03;69.81
68075;BME280;54864;52.002;5.468;2023-05-02T03:46:29;102037.34;;;12.13;69.93
68075;BME280;54864;52.002;5.468;2023-05-02T03:47:31;102040.75;;;12.16;69.62
68075;BME280;54864;52.002;5.468;2023-05-02T03:48:32;102038.34;;;12.09;69.70
68075;BME280;54864;52.002;5.468;2023-05-02T03:49:34;102037.69;;;12.02;69.17
68075;BME280;54864;52.002;5.468;2023-05-02T03:50:36;102035.16;;;11.99;69.67
68075;BME280;54864;52.002;5.468;2023-05-02T03:51:41;102035.97;;;12.01;69.53
68075;BME280;54864;52.002;5.468;2023-05-02T03:52:42;102034.84;;;11.80;69.46
68075;BME280;54864;52.002;5.468;2023-05-02T03:53:44;102038.78;;;11.65;69.89
68075;BME280;54864;52.002;5.468;2023-05-02T03:54:48;102041.00;;;11.81;70.63
68075;BME280;54864;52.002;5.468;2023-05-02T03:55:51;102043.28;;;11.93;70.03
68075;BME280;54864;52.002;5.468;2023-05-02T03:56:52;102036.97;;;11.97;69.52
68075;BME280;54864;52.002;5.468;2023-05-02T03:57:55;102041.34;;;11.98;69.44
68075;BME280;54864;52.002;5.468;2023-05-02T03:58:56;102046.34;;;12.07;69.34
68075;BME280;54864;52.002;5.468;2023-05-02T03:59:58;102046.25;;;12.10;68.77
68075;BME280;54864;52.002;5.468;2023-05-02T04:00:59;102043.69;;;12.07;69.32
68075;BME280;54864;52.002;5.468;2023-05-02T04:02:01;102048.94;;;11.81;69.71
68075;BME280;54864;52.002;5.468;2023-05-02T04:03:02;102046.19;;;11.84;69.51
68075;BME280;54864;52.002;5.468;2023-05-02T04:04:04;102040.38;;;12.00;69.19
68075;BME280;54864;52.002;5.468;2023-05-02T04:05:05;102049.50;;;11.90;69.52
68075;BME280;54864;52.002;5.468;2023-05-02T04:06:09;102053.69;;;11.97;69.53
68075;BME280;54864;52.002;5.468;2023-05-02T04:07:10;102053.88;;;11.91;69.56
68075;BME280;54864;52.002;5.468;2023-05-02T04:08:17;102059.41;;;11.84;69.63
68075;BME280;54864;52.002;5.468;2023-05-02T04:09:19;102059.06;;;11.94;69.60
68075;BME280;54864;52.002;5.468;2023-05-02T04:10:24;102058.50;;;11.85;69.65
68075;BME280;54864;52.002;5.468;2023-05-02T04:11:26;102065.28;;;11.93;69.61
68075;BME280;54864;52.002;5.468;2023-05-02T04:12:27;102064.13;;;12.02;69.44
68075;BME280;54864;52.002;5.468;2023-05-02T04:13:28;102063.72;;;11.86;69.57
68075;BME280;54864;52.002;5.468;2023-05-02T04:14:29;102066.81;;;12.00;69.33
68075;BME280;54864;52.002;5.468;2023-05-02T04:15:31;102064.06;;;12.03;69.40
68075;BME280;54864;52.002;5.468;2023-05-02T04:16:32;102066.97;;;11.96;68.98
68075;BME280;54864;52.002;5.468;2023-05-02T04:17:33;102063.88;;;12.10;68.92
68075;BME280;54864;52.002;5.468;2023-05-02T04:18:34;102064.38;;;11.94;68.98
68075;BME280;54864;52.002;5.468;2023-05-02T04:19:38;102076.09;;;11.86;69.44
68075;BME280;54864;52.002;5.468;2023-05-02T04:20:41;102073.34;;;11.58;70.59
68075;BME280;54864;52.002;5.468;2023-05-02T04:21:45;102070.28;;;11.73;70.29
68075;BME280;54864;52.002;5.468;2023-05-02T04:22:45;102072.75;;;11.79;70.24
68075;BME280;54864;52.002;5.468;2023-05-02T04:23:49;102073.81;;;11.72;69.78
68075;BME280;54864;52.002;5.468;2023-05-02T04:24:51;102075.47;;;11.76;69.75
68075;BME280;54864;52.002;5.468;2023-05-02T04:25:52;102077.63;;;11.62;69.25
68075;BME280;54864;52.002;5.468;2023-05-02T04:26:54;102078.25;;;11.40;70.43
68075;BME280;54864;52.002;5.468;2023-05-02T04:27:55;102087.69;;;11.49;70.33
68075;BME280;54864;52.002;5.468;2023-05-02T04:28:56;102081.41;;;11.53;70.56
68075;BME280;54864;52.002;5.468;2023-05-02T04:29:57;102081.94;;;11.64;69.85
68075;BME280;54864;52.002;5.468;2023-05-02T04:31:01;102083.69;;;11.65;69.72
68075;BME280;54864;52.002;5.468;2023-05-02T04:32:06;102085.31;;;11.69;70.10
68075;BME280;54864;52.002;5.468;2023-05-02T04:33:07;102084.41;;;11.72;70.09
68075;BME280;54864;52.002;5.468;2023-05-02T04:34:08;102089.53;;;11.78;69.69
68075;BME280;54864;52.002;5.468;2023-05-02T04:35:10;102100.50;;;11.94;69.68
68075;BME280;54864;52.002;5.468;2023-05-02T04:36:10;102088.91;;;11.98;69.12
68075;BME280;54864;52.002;5.468;2023-05-02T04:37:13;102091.59;;;11.96;68.84
68075;BME280;54864;52.002;5.468;2023-05-02T04:38:14;102091.06;;;11.85;68.91
68075;BME280;54864;52.002;5.468;2023-05-02T04:39:16;102091.31;;;12.05;68.56
68075;BME280;54864;52.002;5.468;2023-05-02T04:40:18;102097.94;;;11.91;69.20
68075;BME280;54864;52.002;5.468;2023-05-02T04:41:19;102099.63;;;11.93;69.20
68075;BME280;54864;52.002;5.468;2023-05-02T04:42:20;102105.78;;;11.94;69.10
68075;BME280;54864;52.002;5.468;2023-05-02T04:43:22;102095.88;;;11.40;69.87
68075;BME280;54864;52.002;5.468;2023-05-02T04:44:23;102099.75;;;11.58;69.63
68075;BME280;54864;52.002;5.468;2023-05-02T04:45:25;102102.53;;;11.53;69.52
68075;BME280;54864;52.002;5.468;2023-05-02T04:46:26;102100.84;;;11.51;70.05
68075;BME280;54864;52.002;5.468;2023-05-02T04:47:27;102104.09;;;11.60;69.27
68075;BME280;54864;52.002;5.468;2023-05-02T04:48:28;102109.00;;;11.74;68.66
68075;BME280;54864;52.002;5.468;2023-05-02T04:49:32;102109.09;;;11.71;68.89
68075;BME280;54864;52.002;5.468;2023-05-02T04:50:36;102114.22;;;11.75;68.77
68075;BME280;54864;52.002;5.468;2023-05-02T04:51:38;102103.16;;;11.61;69.43
68075;BME280;54864;52.002;5.468;2023-05-02T04:52:40;102117.94;;;11.68;69.63
68075;BME280;54864;52.002;5.468;2023-05-02T04:53:41;102116.50;;;11.57;69.43
68075;BME280;54864;52.002;5.468;2023-05-02T04:54:42;102122.56;;;11.60;69.56
68075;BME280;54864;52.002;5.468;2023-05-02T04:55:46;102125.31;;;11.57;69.33
68075;BME280;54864;52.002;5.468;2023-05-02T04:56:48;102117.16;;;11.65;69.42
68075;BME280;54864;52.002;5.468;2023-05-02T04:57:49;102128.72;;;11.61;69.54
68075;BME280;54864;52.002;5.468;2023-05-02T04:58:51;102128.72;;;11.61;69.61
68075;BME280;54864;52.002;5.468;2023-05-02T04:59:52;102126.94;;;11.61;69.21
68075;BME280;54864;52.002;5.468;2023-05-02T05:00:54;102122.09;;;11.77;68.61
68075;BME280;54864;52.002;5.468;2023-05-02T05:01:54;102130.94;;;11.76;68.98
68075;BME280;54864;52.002;5.468;2023-05-02T05:02:56;102129.13;;;11.80;68.52
68075;BME280;54864;52.002;5.468;2023-05-02T05:03:57;102136.31;;;11.73;69.15
68075;BME280;54864;52.002;5.468;2023-05-02T05:05:00;102128.31;;;11.76;68.96
68075;BME280;54864;52.002;5.468;2023-05-02T05:06:01;102140.16;;;11.30;69.22
68075;BME280;54864;52.002;5.468;2023-05-02T05:07:03;102140.94;;;11.34;69.85
68075;BME280;54864;52.002;5.468;2023-05-02T05:08:05;102148.34;;;11.20;69.94
68075;BME280;54864;52.002;5.468;2023-05-02T05:09:07;102149.84;;;11.30;70.29
68075;BME280;54864;52.002;5.468;2023-05-02T05:10:08;102152.34;;;11.34;70.17
68075;BME280;54864;52.002;5.468;2023-05-02T05:11:11;102146.91;;;11.40;70.08
68075;BME280;54864;52.002;5.468;2023-05-02T05:12:15;102153.91;;;11.41;70.56
68075;BME280;54864;52.002;5.468;2023-05-02T05:13:17;102154.69;;;11.45;69.85
68075;BME280;54864;52.002;5.468;2023-05-02T05:14:17;102154.94;;;11.36;69.16
68075;BME280;54864;52.002;5.468;2023-05-02T05:15:19;102160.22;;;11.36;70.08
68075;BME280;54864;52.002;5.468;2023-05-02T05:16:21;102158.59;;;11.32;69.30
68075;BME280;54864;52.002;5.468;2023-05-02T05:17:23;102154.78;;;11.09;69.94
68075;BME280;54864;52.002;5.468;2023-05-02T05:18:24;102166.25;;;10.73;69.63
68075;BME280;54864;52.002;5.468;2023-05-02T05:19:26;102161.28;;;10.95;69.75
68075;BME280;54864;52.002;5.468;2023-05-02T05:20:27;102170.31;;;11.22;68.97
68075;BME280;54864;52.002;5.468;2023-05-02T05:21:28;102169.50;;;10.83;68.99
68075;BME280;54864;52.002;5.468;2023-05-02T05:22:37;102168.88;;;11.08;69.50
68075;BME280;54864;52.002;5.468;2023-05-02T05:23:40;102165.34;;;11.09;68.93
68075;BME280;54864;52.002;5.468;2023-05-02T05:24:50;102176.81;;;11.08;68.96
68075;BME280;54864;52.002;5.468;2023-05-02T05:25:52;102170.19;;;11.26;69.36
68075;BME280;54864;52.002;5.468;2023-05-02T05:26:53;102177.06;;;11.32;68.59
68075;BME280;54864;52.002;5.468;2023-05-02T05:27:54;102169.63;;;11.46;67.96
68075;BME280;54864;52.002;5.468;2023-05-02T05:28:55;102181.97;;;11.46;67.42
68075;BME280;54864;52.002;5.468;2023-05-02T05:29:57;102182.63;;;11.21;67.20
68075;BME280;54864;52.002;5.468;2023-05-02T05:31:04;102177.94;;;11.32;67.58
68075;BME280;54864;52.002;5.468;2023-05-02T05:32:07;102187.47;;;11.38;66.73
68075;BME280;54864;52.002;5.468;2023-05-02T05:33:09;102172.34;;;11.43;66.43
68075;BME280;54864;52.002;5.468;2023-05-02T05:34:10;102175.56;;;11.54;66.24